KARB

Ann Arbor Municipal Airport

Ann Arbor, Michigan, USA
METAR KARB 212353Z 36006KT 10SM CLR 02/M02 A3057 RMK AO2 SLP360 T00221017 10039 20022 53016
Observed Flight Rules
Feb-21 @ 23:53 UTC (5 hours ago) Visual Flight Rules
Wind Visibility Clouds
360° at 6 knots 10 miles
  • Clear skies
Temperatures Readings
Current 2°C / 36°F
Dewpoint -2°C / 28°F
Humidity 75%
Altimeter 30.57" Hg
Pressure 1036 hPa
Elevation 251
METAR KARB 212353Z 36006KT 10SM CLR 02/M02 A3057 RMK AO2 SLP360 T00221017 10039 20022 53016
Observed Flight Rules
Feb-21 @ 23:53 UTC
(5 hours ago)
VFR
Wind Visibility
360° at 6 knots 10 miles
Clouds
  • Clear skies
Temperature Dewpoint
2°C / 36°F -2°C / 28°F
Humidity Altimeter Pressure
75% 30.57" Hg 1036 hPa